Close

Questo sito utlizza cookie. Può leggere come li usiamo nella nostra Privacy Policy.

Ronchi Tower
Ronchi Tower

From Facebook

METAR & TAF

2020/07/11 03:50 LIPQ 110350Z AUTO 02003KT 350V050 9999 FEW240/// 17/16 Q1013
2020/07/10 18:22 TAF LIPQ 101700Z 1018/1118 VRB05KT CAVOK TEMPO 1115/1118 TSRA
2020/07/11 03:50 LIPZ 110350Z 09007KT CAVOK 25/21 Q1012 NOSIG
2020/07/10 18:22 TAF LIPZ 101700Z 1018/1124 04008KT CAVOK BECMG 1108/1110 15010KT TEMPO 1115/1121 4000 TSRA BECMG 1116/1118 04015G25KT
2020/07/11 03:50 LIPH 110350Z AUTO 01004KT 9999 OVC190/// 23/21 Q1012
2020/07/10 18:22 TAF LIPH 101700Z 1018/1118 VRB05KT CAVOK PROB40 TEMPO 1115/1118 TSRA BECMG 1116/1118 04012KT
2020/07/11 03:50 LIRF 110350Z 03003KT CAVOK 17/16 Q1014 NOSIG
2020/07/10 18:26 TAF LIRF 101700Z 1018/1124 VRB05KT CAVOK BECMG 1108/1110 25012KT BECMG 1118/1120 VRB05KT
2020/07/11 03:50 LIML 110350Z AUTO 28004KT 9999 BKN049/// BKN160/// 22/20 Q1013
2020/07/10 18:22 TAF LIML 101700Z 1018/1118 VRB05KT 9999 SCT030 TEMPO 1018/1022 4000 TSRA TEMPO 1115/1118 4000 TSRA
2020/07/11 03:50 EDDM 110350Z 28004KT 9999 -RA SCT008 SCT033 16/14 Q1019 RERA TEMPO RA BKN008
2020/07/10 21:14 TAF AMD EDDM 102102Z 1021/1124 VRB03KT 9999 FEW009 BKN025 TEMPO 1021/1101 28007KT SHRA BKN030CB TEMPO 1101/1109 4500 RA BKN009 TEMPO 1101/1117 33006KT PROB30 TEMPO 1112/1117 SHRA BKN025TCU
2020/07/11 03:50 EGSS 110350Z AUTO VRB02KT 9999 NCD 09/07 Q1024
2020/07/10 18:09 TAF EGSS 101656Z 1018/1124 33010KT 9999 SCT030 PROB30 TEMPO 1103/1106 8000
2020/07/11 03:50 EDDF 110350Z 01006KT 330V040 CAVOK 14/09 Q1021 NOSIG
2020/07/10 18:28 TAF EDDF 101700Z 1018/1124 32008KT 9999 SCT045 TEMPO 1101/1110 02006KT

FlightRadar24

Radar Meteo

Traffic data

Agosto 2018

Passeggeri: 63892-12,9% (rank: 23)
Nazionali 34490 -19,8%
Internazionali 29193 -3,0%

Movimenti: 1307+11,7% (rank: 24)
Tot commerciale 556 -7,2%
Aviazione generale 751 +31,5%

Cargo (tons): 20,6+62,5% (rank: 21)

Gennaio - Agosto 2018

Passeggeri: 507438-3,5% (rank: 23)
Nazionali 322655 -4,9%
Internazionali 182927 -0,7%

Movimenti: 10366-4,25 (rank: 22)
Tot commerciale 5328 -11,0%
Aviazione generale 5038 +4,2%

Cargo (tons): 299,2+61,9% (rank: 20)

Photo

Gulfstream Aerospace G550
Gulfstream Aerospace G550
Distinct views: 25
Reims F152 II
Reims F152 II
Distinct views: 56
Douglas DC-6B
Douglas DC-6B
Distinct views: 156
Boeing 737-300
Boeing 737-300
Total views: 2036